Hlavní strana
METAR-TAF:

METAR-TAF

Letiště :

Istanbul Atatürkovo letiště

Istanbul Atatürk, Turecko

zeměpisná šířka: 40-58N, zeměpisná délka: 028-49E, výška: 48 m

Aktuální stav počasí

Zpráva byla vytvořena před 33 minutami, v 01:50 UTC
Západoseverozápadní vítr 2 kt
Teplota 22°C
Vlhkost vzduchu 88%
Tlak 1011 hPa
Viditelnost 10 km a více
Žádná oblačnost pod 1500 m, nevyskytují se cumulonimby.

METAR: LTBA 250150Z 30002KT CAVOK 22/20 Q1011 NOSIG RMK RWY23 VRB02KT

Čas: 05:23 (02:23 UTC)

Předpověď počasí

Zpráva byla vytvořena před 3 hodinami a 43 minutami, v 22:40 UTC
Předpověď platná od 25 v 00 UTC do 26 v 06 UTC
vítr z různých směrů 2 kt
Viditelnost 10 km a více
Žádná oblačnost pod 1500 m, nevyskytují se cumulonimby.
Dočasný
od 25 v 01 UTC do 25 v 05 UTC
Skoro jasno ve výšce 3500 ft
Polojasno ve výšce 9000 ft
Změna
od 26 v 03 UTC do 26 v 06 UTC
Jižní vítr 12 kt

TAF: LTBA 242240Z 2500/2606 VRB02KT CAVOK TEMPO 2501/2505 FEW035 SCT090 BECMG 2603/2606 17012KT

Stav a předpovědi počasí z více než 4 000 letišť (zprávy METAR a TAF).

Červené a žluté tečky na mapě představují dostupné meteorologické stanice.

Když kurzor umístíte na tečku, zobrazí se název stanice.

Pak kliknutím zobrazíte stav a předpověď počasí.

Chcete-li změnit mapu, kliknutím na zelené tlačítko se znaménkem +mapu přiblížíte, kliknutím na zelené tlačítko se znaménkem – mapu oddálíte a kliknutím na zelené šipky přejdete na sousední mapy.


METAR-TAF: